sensor_id;sensor_type;location;lat;lon;timestamp;temperature;humidity
15359;DHT22;7779;49.596;11.070;2024-02-26T00:01:39;2.70;62.70
15359;DHT22;7779;49.596;11.070;2024-02-26T00:04:05;2.60;62.60
15359;DHT22;7779;49.596;11.070;2024-02-26T00:06:31;2.60;62.60
15359;DHT22;7779;49.596;11.070;2024-02-26T00:08:58;2.60;62.70
15359;DHT22;7779;49.596;11.070;2024-02-26T00:11:23;2.60;62.70
15359;DHT22;7779;49.596;11.070;2024-02-26T00:13:49;2.60;62.70
15359;DHT22;7779;49.596;11.070;2024-02-26T00:16:15;2.60;62.70
15359;DHT22;7779;49.596;11.070;2024-02-26T00:18:40;2.60;62.80
15359;DHT22;7779;49.596;11.070;2024-02-26T00:21:06;2.60;62.80
15359;DHT22;7779;49.596;11.070;2024-02-26T00:23:32;2.60;62.80
15359;DHT22;7779;49.596;11.070;2024-02-26T00:25:58;2.50;62.70
15359;DHT22;7779;49.596;11.070;2024-02-26T00:28:23;2.50;62.80
15359;DHT22;7779;49.596;11.070;2024-02-26T00:30:50;2.50;62.80
15359;DHT22;7779;49.596;11.070;2024-02-26T00:33:21;2.50;62.80
15359;DHT22;7779;49.596;11.070;2024-02-26T00:35:48;2.50;62.90
15359;DHT22;7779;49.596;11.070;2024-02-26T00:38:14;2.50;62.90
15359;DHT22;7779;49.596;11.070;2024-02-26T00:40:40;2.40;62.90
15359;DHT22;7779;49.596;11.070;2024-02-26T00:43:06;2.40;62.90
15359;DHT22;7779;49.596;11.070;2024-02-26T00:45:32;2.70;63.30
15359;DHT22;7779;49.596;11.070;2024-02-26T00:47:58;2.40;63.10
15359;DHT22;7779;49.596;11.070;2024-02-26T00:50:26;2.40;63.10
15359;DHT22;7779;49.596;11.070;2024-02-26T00:52:52;2.40;63.20
15359;DHT22;7779;49.596;11.070;2024-02-26T00:55:18;2.30;63.10
15359;DHT22;7779;49.596;11.070;2024-02-26T00:57:44;2.30;63.20
15359;DHT22;7779;49.596;11.070;2024-02-26T01:00:10;2.30;63.20
15359;DHT22;7779;49.596;11.070;2024-02-26T01:02:36;2.30;63.20
15359;DHT22;7779;49.596;11.070;2024-02-26T01:05:02;2.30;63.20
15359;DHT22;7779;49.596;11.070;2024-02-26T01:07:28;2.30;63.30
15359;DHT22;7779;49.596;11.070;2024-02-26T01:09:54;2.30;63.40
15359;DHT22;7779;49.596;11.070;2024-02-26T01:12:19;2.30;63.40
15359;DHT22;7779;49.596;11.070;2024-02-26T01:14:45;2.20;63.40
15359;DHT22;7779;49.596;11.070;2024-02-26T01:17:11;2.20;63.50
15359;DHT22;7779;49.596;11.070;2024-02-26T01:19:36;2.20;63.70
15359;DHT22;7779;49.596;11.070;2024-02-26T01:22:02;2.20;63.80
15359;DHT22;7779;49.596;11.070;2024-02-26T01:24:29;2.20;64.00
15359;DHT22;7779;49.596;11.070;2024-02-26T01:26:54;2.30;64.30
15359;DHT22;7779;49.596;11.070;2024-02-26T01:29:20;2.30;64.50
15359;DHT22;7779;49.596;11.070;2024-02-26T01:31:46;2.30;64.60
15359;DHT22;7779;49.596;11.070;2024-02-26T01:34:11;2.30;64.70
15359;DHT22;7779;49.596;11.070;2024-02-26T01:36:37;2.40;64.70
15359;DHT22;7779;49.596;11.070;2024-02-26T01:39:03;2.40;64.70
15359;DHT22;7779;49.596;11.070;2024-02-26T01:41:29;2.40;64.70
15359;DHT22;7779;49.596;11.070;2024-02-26T01:43:54;2.40;65.40
15359;DHT22;7779;49.596;11.070;2024-02-26T01:46:20;2.50;64.90
15359;DHT22;7779;49.596;11.070;2024-02-26T01:48:47;2.50;65.00
15359;DHT22;7779;49.596;11.070;2024-02-26T01:51:15;2.50;65.00
15359;DHT22;7779;49.596;11.070;2024-02-26T01:53:43;2.60;65.30
15359;DHT22;7779;49.596;11.070;2024-02-26T01:56:09;2.60;65.50
15359;DHT22;7779;49.596;11.070;2024-02-26T01:58:35;2.70;65.80
15359;DHT22;7779;49.596;11.070;2024-02-26T02:01:02;2.80;66.10
15359;DHT22;7779;49.596;11.070;2024-02-26T02:03:28;2.80;66.20
15359;DHT22;7779;49.596;11.070;2024-02-26T02:05:56;2.90;66.40
15359;DHT22;7779;49.596;11.070;2024-02-26T02:08:22;3.00;66.60
15359;DHT22;7779;49.596;11.070;2024-02-26T02:10:49;3.10;66.90
15359;DHT22;7779;49.596;11.070;2024-02-26T02:13:15;3.20;67.00
15359;DHT22;7779;49.596;11.070;2024-02-26T02:15:41;3.30;67.10
15359;DHT22;7779;49.596;11.070;2024-02-26T02:18:07;3.40;67.30
15359;DHT22;7779;49.596;11.070;2024-02-26T02:20:34;3.60;67.30
15359;DHT22;7779;49.596;11.070;2024-02-26T02:23:00;3.70;67.30
15359;DHT22;7779;49.596;11.070;2024-02-26T02:25:26;3.80;67.20
15359;DHT22;7779;49.596;11.070;2024-02-26T02:27:54;3.80;67.10
15359;DHT22;7779;49.596;11.070;2024-02-26T02:30:25;3.90;67.10
15359;DHT22;7779;49.596;11.070;2024-02-26T02:32:55;4.00;67.20
15359;DHT22;7779;49.596;11.070;2024-02-26T02:35:24;4.10;67.00
15359;DHT22;7779;49.596;11.070;2024-02-26T02:37:52;4.20;66.80
15359;DHT22;7779;49.596;11.070;2024-02-26T02:40:18;4.20;66.80
15359;DHT22;7779;49.596;11.070;2024-02-26T02:42:44;4.20;66.60
15359;DHT22;7779;49.596;11.070;2024-02-26T02:45:10;4.30;66.60
15359;DHT22;7779;49.596;11.070;2024-02-26T02:47:36;4.30;66.60
15359;DHT22;7779;49.596;11.070;2024-02-26T02:50:03;4.30;66.50
15359;DHT22;7779;49.596;11.070;2024-02-26T02:52:29;4.40;66.60
15359;DHT22;7779;49.596;11.070;2024-02-26T02:54:55;4.40;66.60
15359;DHT22;7779;49.596;11.070;2024-02-26T02:57:20;4.50;66.70
15359;DHT22;7779;49.596;11.070;2024-02-26T02:59:46;4.50;66.70
15359;DHT22;7779;49.596;11.070;2024-02-26T03:02:12;4.50;66.60
15359;DHT22;7779;49.596;11.070;2024-02-26T03:04:38;4.60;66.80
15359;DHT22;7779;49.596;11.070;2024-02-26T03:07:03;4.60;66.70
15359;DHT22;7779;49.596;11.070;2024-02-26T03:09:29;4.60;66.70
15359;DHT22;7779;49.596;11.070;2024-02-26T03:11:55;4.70;66.90
15359;DHT22;7779;49.596;11.070;2024-02-26T03:14:20;4.70;66.80
15359;DHT22;7779;49.596;11.070;2024-02-26T03:16:46;4.80;66.90
15359;DHT22;7779;49.596;11.070;2024-02-26T03:19:15;4.90;67.00
15359;DHT22;7779;49.596;11.070;2024-02-26T03:21:43;4.90;67.00
15359;DHT22;7779;49.596;11.070;2024-02-26T03:24:09;5.00;66.90
15359;DHT22;7779;49.596;11.070;2024-02-26T03:26:36;5.00;66.90
15359;DHT22;7779;49.596;11.070;2024-02-26T03:29:02;5.10;66.90
15359;DHT22;7779;49.596;11.070;2024-02-26T03:31:28;5.20;66.90
15359;DHT22;7779;49.596;11.070;2024-02-26T03:33:54;5.20;66.80
15359;DHT22;7779;49.596;11.070;2024-02-26T03:36:19;5.30;67.30
15359;DHT22;7779;49.596;11.070;2024-02-26T03:38:47;5.30;66.70
15359;DHT22;7779;49.596;11.070;2024-02-26T03:41:13;5.40;67.10
15359;DHT22;7779;49.596;11.070;2024-02-26T03:43:39;5.50;66.80
15359;DHT22;7779;49.596;11.070;2024-02-26T03:46:08;5.50;66.70
15359;DHT22;7779;49.596;11.070;2024-02-26T03:48:35;5.60;66.70
15359;DHT22;7779;49.596;11.070;2024-02-26T03:51:00;5.60;66.50
15359;DHT22;7779;49.596;11.070;2024-02-26T03:53:26;5.70;67.00
15359;DHT22;7779;49.596;11.070;2024-02-26T03:55:53;5.70;66.30
15359;DHT22;7779;49.596;11.070;2024-02-26T03:58:20;5.80;66.20
15359;DHT22;7779;49.596;11.070;2024-02-26T04:00:46;5.80;66.00
15359;DHT22;7779;49.596;11.070;2024-02-26T04:03:13;5.80;65.80
15359;DHT22;7779;49.596;11.070;2024-02-26T04:05:39;5.80;65.60
15359;DHT22;7779;49.596;11.070;2024-02-26T04:08:05;5.80;65.40
15359;DHT22;7779;49.596;11.070;2024-02-26T04:10:33;5.80;65.20
15359;DHT22;7779;49.596;11.070;2024-02-26T04:13:04;5.80;65.00
15359;DHT22;7779;49.596;11.070;2024-02-26T04:15:31;5.80;64.90
15359;DHT22;7779;49.596;11.070;2024-02-26T04:17:57;5.70;64.70
15359;DHT22;7779;49.596;11.070;2024-02-26T04:20:23;5.60;64.50
15359;DHT22;7779;49.596;11.070;2024-02-26T04:22:49;5.60;64.50
15359;DHT22;7779;49.596;11.070;2024-02-26T04:25:15;5.50;64.30
15359;DHT22;7779;49.596;11.070;2024-02-26T04:27:40;5.40;64.40
15359;DHT22;7779;49.596;11.070;2024-02-26T04:30:07;5.40;64.40
15359;DHT22;7779;49.596;11.070;2024-02-26T04:32:33;5.30;64.40
15359;DHT22;7779;49.596;11.070;2024-02-26T04:35:00;5.20;64.50
15359;DHT22;7779;49.596;11.070;2024-02-26T04:37:27;5.20;64.50
15359;DHT22;7779;49.596;11.070;2024-02-26T04:39:58;5.10;64.60
15359;DHT22;7779;49.596;11.070;2024-02-26T04:42:24;5.10;64.80
15359;DHT22;7779;49.596;11.070;2024-02-26T04:44:50;5.00;64.90
15359;DHT22;7779;49.596;11.070;2024-02-26T04:47:16;5.00;65.00
15359;DHT22;7779;49.596;11.070;2024-02-26T04:49:41;4.90;65.10
15359;DHT22;7779;49.596;11.070;2024-02-26T04:52:07;4.90;65.20
15359;DHT22;7779;49.596;11.070;2024-02-26T04:54:33;4.90;65.40
15359;DHT22;7779;49.596;11.070;2024-02-26T04:56:59;4.80;65.40
15359;DHT22;7779;49.596;11.070;2024-02-26T04:59:24;4.80;65.50
15359;DHT22;7779;49.596;11.070;2024-02-26T05:01:50;4.80;65.60
15359;DHT22;7779;49.596;11.070;2024-02-26T05:04:18;4.80;65.70
15359;DHT22;7779;49.596;11.070;2024-02-26T05:06:44;4.80;65.80
15359;DHT22;7779;49.596;11.070;2024-02-26T05:09:10;4.80;65.90
15359;DHT22;7779;49.596;11.070;2024-02-26T05:11:35;4.80;66.00
15359;DHT22;7779;49.596;11.070;2024-02-26T05:14:01;4.80;66.10
15359;DHT22;7779;49.596;11.070;2024-02-26T05:16:27;4.80;66.10
15359;DHT22;7779;49.596;11.070;2024-02-26T05:18:53;4.80;66.30
15359;DHT22;7779;49.596;11.070;2024-02-26T05:21:19;4.80;66.40
15359;DHT22;7779;49.596;11.070;2024-02-26T05:23:44;4.80;66.50
15359;DHT22;7779;49.596;11.070;2024-02-26T05:26:10;4.80;66.50
15359;DHT22;7779;49.596;11.070;2024-02-26T05:28:36;4.90;66.60
15359;DHT22;7779;49.596;11.070;2024-02-26T05:31:05;4.90;66.60
15359;DHT22;7779;49.596;11.070;2024-02-26T05:33:31;4.90;66.70
15359;DHT22;7779;49.596;11.070;2024-02-26T05:35:56;5.00;66.80
15359;DHT22;7779;49.596;11.070;2024-02-26T05:38:22;5.00;66.80
15359;DHT22;7779;49.596;11.070;2024-02-26T05:40:48;5.10;66.80
15359;DHT22;7779;49.596;11.070;2024-02-26T05:43:14;5.10;66.80
15359;DHT22;7779;49.596;11.070;2024-02-26T05:45:42;5.20;66.80
15359;DHT22;7779;49.596;11.070;2024-02-26T05:48:08;5.30;66.90
15359;DHT22;7779;49.596;11.070;2024-02-26T05:50:34;5.30;66.70
15359;DHT22;7779;49.596;11.070;2024-02-26T05:53:00;5.40;66.70
15359;DHT22;7779;49.596;11.070;2024-02-26T05:55:26;5.50;66.70
15359;DHT22;7779;49.596;11.070;2024-02-26T05:57:52;5.50;66.60
15359;DHT22;7779;49.596;11.070;2024-02-26T06:00:18;5.60;66.60
15359;DHT22;7779;49.596;11.070;2024-02-26T06:02:44;5.60;66.40
15359;DHT22;7779;49.596;11.070;2024-02-26T06:05:10;5.70;66.40
15359;DHT22;7779;49.596;11.070;2024-02-26T06:07:36;5.80;66.40
15359;DHT22;7779;49.596;11.070;2024-02-26T06:10:02;5.80;66.30
15359;DHT22;7779;49.596;11.070;2024-02-26T06:12:30;5.80;66.20
15359;DHT22;7779;49.596;11.070;2024-02-26T06:14:56;5.90;66.20
15359;DHT22;7779;49.596;11.070;2024-02-26T06:17:22;5.90;66.10
15359;DHT22;7779;49.596;11.070;2024-02-26T06:19:48;6.00;66.10
15359;DHT22;7779;49.596;11.070;2024-02-26T06:22:14;6.00;66.00
15359;DHT22;7779;49.596;11.070;2024-02-26T06:24:39;6.00;66.00
15359;DHT22;7779;49.596;11.070;2024-02-26T06:27:05;6.10;66.00
15359;DHT22;7779;49.596;11.070;2024-02-26T06:29:31;6.10;66.00
15359;DHT22;7779;49.596;11.070;2024-02-26T06:31:56;6.10;65.90
15359;DHT22;7779;49.596;11.070;2024-02-26T06:34:22;6.10;65.90
15359;DHT22;7779;49.596;11.070;2024-02-26T06:36:48;6.20;66.10
15359;DHT22;7779;49.596;11.070;2024-02-26T06:39:13;6.20;66.10
15359;DHT22;7779;49.596;11.070;2024-02-26T06:41:41;6.20;66.10
15359;DHT22;7779;49.596;11.070;2024-02-26T06:44:07;6.30;66.10
15359;DHT22;7779;49.596;11.070;2024-02-26T06:46:33;6.30;66.10
15359;DHT22;7779;49.596;11.070;2024-02-26T06:48:58;6.30;66.10
15359;DHT22;7779;49.596;11.070;2024-02-26T06:51:24;6.40;66.20
15359;DHT22;7779;49.596;11.070;2024-02-26T06:53:50;6.40;66.10
15359;DHT22;7779;49.596;11.070;2024-02-26T06:56:16;6.50;66.10
15359;DHT22;7779;49.596;11.070;2024-02-26T06:58:41;6.50;66.00
15359;DHT22;7779;49.596;11.070;2024-02-26T07:01:07;6.50;66.00
15359;DHT22;7779;49.596;11.070;2024-02-26T07:03:35;6.60;66.00
15359;DHT22;7779;49.596;11.070;2024-02-26T07:06:02;6.60;65.90
15359;DHT22;7779;49.596;11.070;2024-02-26T07:08:28;6.60;65.80
15359;DHT22;7779;49.596;11.070;2024-02-26T07:10:53;6.70;66.40
15359;DHT22;7779;49.596;11.070;2024-02-26T07:13:19;6.70;65.80
15359;DHT22;7779;49.596;11.070;2024-02-26T07:15:46;6.70;65.70
15359;DHT22;7779;49.596;11.070;2024-02-26T07:18:11;6.80;65.70
15359;DHT22;7779;49.596;11.070;2024-02-26T07:20:37;6.80;65.60
15359;DHT22;7779;49.596;11.070;2024-02-26T07:23:03;6.80;65.60
15359;DHT22;7779;49.596;11.070;2024-02-26T07:25:29;6.80;65.60
15359;DHT22;7779;49.596;11.070;2024-02-26T07:27:55;6.90;65.70
15359;DHT22;7779;49.596;11.070;2024-02-26T07:30:20;6.90;65.60
15359;DHT22;7779;49.596;11.070;2024-02-26T07:32:46;6.90;65.60
15359;DHT22;7779;49.596;11.070;2024-02-26T07:35:12;6.90;65.60
15359;DHT22;7779;49.596;11.070;2024-02-26T07:37:38;7.00;65.80
15359;DHT22;7779;49.596;11.070;2024-02-26T07:40:04;7.00;65.80
15359;DHT22;7779;49.596;11.070;2024-02-26T07:42:31;7.10;65.80
15359;DHT22;7779;49.596;11.070;2024-02-26T07:44:56;7.10;65.60
15359;DHT22;7779;49.596;11.070;2024-02-26T07:47:22;7.20;64.90
15359;DHT22;7779;49.596;11.070;2024-02-26T07:49:48;7.20;65.70
15359;DHT22;7779;49.596;11.070;2024-02-26T07:52:14;7.20;65.70
15359;DHT22;7779;49.596;11.070;2024-02-26T07:54:39;7.30;65.90
15359;DHT22;7779;49.596;11.070;2024-02-26T07:57:05;7.40;66.00
15359;DHT22;7779;49.596;11.070;2024-02-26T07:59:31;7.40;66.00
15359;DHT22;7779;49.596;11.070;2024-02-26T08:01:57;7.50;66.00
15359;DHT22;7779;49.596;11.070;2024-02-26T08:04:23;7.60;66.00
15359;DHT22;7779;49.596;11.070;2024-02-26T08:06:48;7.70;66.10
15359;DHT22;7779;49.596;11.070;2024-02-26T08:09:14;7.70;66.10
15359;DHT22;7779;49.596;11.070;2024-02-26T08:11:40;7.80;66.10
15359;DHT22;7779;49.596;11.070;2024-02-26T08:14:06;7.90;66.20
15359;DHT22;7779;49.596;11.070;2024-02-26T08:16:31;8.10;66.10
15359;DHT22;7779;49.596;11.070;2024-02-26T08:18:57;8.10;66.00
15359;DHT22;7779;49.596;11.070;2024-02-26T08:21:23;8.20;65.80
15359;DHT22;7779;49.596;11.070;2024-02-26T08:23:49;8.30;65.70
15359;DHT22;7779;49.596;11.070;2024-02-26T08:26:14;8.40;65.40
15359;DHT22;7779;49.596;11.070;2024-02-26T08:28:40;8.50;65.30
15359;DHT22;7779;49.596;11.070;2024-02-26T08:31:06;8.50;65.00
15359;DHT22;7779;49.596;11.070;2024-02-26T08:33:32;8.60;64.80
15359;DHT22;7779;49.596;11.070;2024-02-26T08:36:04;8.70;64.70
15359;DHT22;7779;49.596;11.070;2024-02-26T08:38:30;8.70;64.20
15359;DHT22;7779;49.596;11.070;2024-02-26T08:40:56;8.80;64.30
15359;DHT22;7779;49.596;11.070;2024-02-26T08:43:22;8.80;64.20
15359;DHT22;7779;49.596;11.070;2024-02-26T08:45:47;8.80;64.20
15359;DHT22;7779;49.596;11.070;2024-02-26T08:48:13;8.90;64.20
15359;DHT22;7779;49.596;11.070;2024-02-26T08:50:38;9.00;64.40
15359;DHT22;7779;49.596;11.070;2024-02-26T08:53:04;9.00;64.30
15359;DHT22;7779;49.596;11.070;2024-02-26T08:55:31;9.10;64.30
15359;DHT22;7779;49.596;11.070;2024-02-26T08:57:56;9.20;64.40
15359;DHT22;7779;49.596;11.070;2024-02-26T09:00:22;9.20;64.30
15359;DHT22;7779;49.596;11.070;2024-02-26T09:02:48;9.30;64.20
15359;DHT22;7779;49.596;11.070;2024-02-26T09:05:14;9.40;63.90
15359;DHT22;7779;49.596;11.070;2024-02-26T09:07:41;9.40;63.80
15359;DHT22;7779;49.596;11.070;2024-02-26T09:10:07;9.50;63.60
15359;DHT22;7779;49.596;11.070;2024-02-26T09:12:37;9.50;63.40
15359;DHT22;7779;49.596;11.070;2024-02-26T09:15:03;9.50;63.20
15359;DHT22;7779;49.596;11.070;2024-02-26T09:17:29;9.50;63.00
15359;DHT22;7779;49.596;11.070;2024-02-26T09:19:55;9.60;63.10
15359;DHT22;7779;49.596;11.070;2024-02-26T09:22:21;9.60;63.60
15359;DHT22;7779;49.596;11.070;2024-02-26T09:24:46;9.70;63.00
15359;DHT22;7779;49.596;11.070;2024-02-26T09:27:12;9.70;63.10
15359;DHT22;7779;49.596;11.070;2024-02-26T09:29:38;9.80;63.00
15359;DHT22;7779;49.596;11.070;2024-02-26T09:32:04;9.80;62.90
15359;DHT22;7779;49.596;11.070;2024-02-26T09:34:30;9.80;62.70
15359;DHT22;7779;49.596;11.070;2024-02-26T09:36:56;9.90;62.60
15359;DHT22;7779;49.596;11.070;2024-02-26T09:39:21;9.90;62.50
15359;DHT22;7779;49.596;11.070;2024-02-26T09:41:48;10.00;61.40
15359;DHT22;7779;49.596;11.070;2024-02-26T09:44:19;10.00;61.40
15359;DHT22;7779;49.596;11.070;2024-02-26T09:46:48;10.10;61.20
15359;DHT22;7779;49.596;11.070;2024-02-26T09:49:19;10.20;61.50
15359;DHT22;7779;49.596;11.070;2024-02-26T09:51:45;10.20;61.40
15359;DHT22;7779;49.596;11.070;2024-02-26T09:54:15;10.30;61.40
15359;DHT22;7779;49.596;11.070;2024-02-26T09:56:42;10.40;61.20
15359;DHT22;7779;49.596;11.070;2024-02-26T09:59:15;10.40;60.70
15359;DHT22;7779;49.596;11.070;2024-02-26T10:01:44;10.50;60.20
15359;DHT22;7779;49.596;11.070;2024-02-26T10:04:12;10.60;60.30
15359;DHT22;7779;49.596;11.070;2024-02-26T10:06:39;10.60;60.50
15359;DHT22;7779;49.596;11.070;2024-02-26T10:09:06;10.70;60.50
15359;DHT22;7779;49.596;11.070;2024-02-26T10:11:35;10.70;60.30
15359;DHT22;7779;49.596;11.070;2024-02-26T10:14:03;10.80;60.30
15359;DHT22;7779;49.596;11.070;2024-02-26T10:16:29;10.80;59.90
15359;DHT22;7779;49.596;11.070;2024-02-26T10:18:55;10.90;59.90
15359;DHT22;7779;49.596;11.070;2024-02-26T10:21:21;10.90;59.90
15359;DHT22;7779;49.596;11.070;2024-02-26T10:23:48;11.00;59.80
15359;DHT22;7779;49.596;11.070;2024-02-26T10:26:16;11.00;59.90
15359;DHT22;7779;49.596;11.070;2024-02-26T10:28:45;11.10;60.10
15359;DHT22;7779;49.596;11.070;2024-02-26T10:31:13;11.10;59.80
15359;DHT22;7779;49.596;11.070;2024-02-26T10:33:40;11.20;60.20
15359;DHT22;7779;49.596;11.070;2024-02-26T10:36:08;11.30;60.50
15359;DHT22;7779;49.596;11.070;2024-02-26T10:38:35;11.50;60.90
15359;DHT22;7779;49.596;11.070;2024-02-26T10:41:06;11.60;60.30
15359;DHT22;7779;49.596;11.070;2024-02-26T10:43:32;11.70;59.70
15359;DHT22;7779;49.596;11.070;2024-02-26T10:45:58;11.80;57.80
15359;DHT22;7779;49.596;11.070;2024-02-26T10:48:24;11.80;59.50
15359;DHT22;7779;49.596;11.070;2024-02-26T10:50:50;11.90;59.60
15359;DHT22;7779;49.596;11.070;2024-02-26T10:53:22;12.00;59.30
15359;DHT22;7779;49.596;11.070;2024-02-26T10:55:58;12.00;58.70
15359;DHT22;7779;49.596;11.070;2024-02-26T10:58:27;12.10;58.60
15359;DHT22;7779;49.596;11.070;2024-02-26T11:00:56;12.20;59.00
15359;DHT22;7779;49.596;11.070;2024-02-26T11:03:23;12.30;58.90
15359;DHT22;7779;49.596;11.070;2024-02-26T11:05:54;12.30;59.00
15359;DHT22;7779;49.596;11.070;2024-02-26T11:08:21;12.40;58.90
15359;DHT22;7779;49.596;11.070;2024-02-26T11:10:53;12.50;59.40
15359;DHT22;7779;49.596;11.070;2024-02-26T11:13:19;12.60;58.70
15359;DHT22;7779;49.596;11.070;2024-02-26T11:15:47;12.70;56.90
15359;DHT22;7779;49.596;11.070;2024-02-26T11:18:15;12.70;58.70
15359;DHT22;7779;49.596;11.070;2024-02-26T11:20:42;12.90;58.70
15359;DHT22;7779;49.596;11.070;2024-02-26T11:23:09;12.90;58.50
15359;DHT22;7779;49.596;11.070;2024-02-26T11:25:36;13.00;58.40
15359;DHT22;7779;49.596;11.070;2024-02-26T11:28:05;13.10;58.30
15359;DHT22;7779;49.596;11.070;2024-02-26T11:30:39;13.20;58.10
15359;DHT22;7779;49.596;11.070;2024-02-26T11:33:10;13.30;57.90
15359;DHT22;7779;49.596;11.070;2024-02-26T11:35:38;13.30;57.80
15359;DHT22;7779;49.596;11.070;2024-02-26T11:38:04;13.40;57.70
15359;DHT22;7779;49.596;11.070;2024-02-26T11:40:33;13.50;58.20
15359;DHT22;7779;49.596;11.070;2024-02-26T11:43:05;13.50;57.40
15359;DHT22;7779;49.596;11.070;2024-02-26T11:48:44;13.60;56.50
15359;DHT22;7779;49.596;11.070;2024-02-26T11:51:04;13.70;56.50
15359;DHT22;7779;49.596;11.070;2024-02-26T11:53:31;13.70;56.80
15359;DHT22;7779;49.596;11.070;2024-02-26T11:59:10;13.80;54.60
15359;DHT22;7779;49.596;11.070;2024-02-26T12:01:37;13.80;56.20
15359;DHT22;7779;49.596;11.070;2024-02-26T12:04:18;13.90;56.10
15359;DHT22;7779;49.596;11.070;2024-02-26T12:07:01;13.90;55.90
15359;DHT22;7779;49.596;11.070;2024-02-26T12:12:00;14.00;55.90
15359;DHT22;7779;49.596;11.070;2024-02-26T12:14:27;14.10;56.10
15359;DHT22;7779;49.596;11.070;2024-02-26T12:16:53;14.10;53.40
15359;DHT22;7779;49.596;11.070;2024-02-26T12:19:21;14.20;55.80
15359;DHT22;7779;49.596;11.070;2024-02-26T12:21:52;14.30;56.10
15359;DHT22;7779;49.596;11.070;2024-02-26T12:24:21;14.30;55.60
15359;DHT22;7779;49.596;11.070;2024-02-26T12:26:47;14.40;55.70
15359;DHT22;7779;49.596;11.070;2024-02-26T12:29:13;14.40;55.50
15359;DHT22;7779;49.596;11.070;2024-02-26T12:31:40;14.40;55.10
15359;DHT22;7779;49.596;11.070;2024-02-26T12:34:07;14.50;55.10
15359;DHT22;7779;49.596;11.070;2024-02-26T12:36:35;14.50;55.60
15359;DHT22;7779;49.596;11.070;2024-02-26T12:39:04;14.50;55.00
15359;DHT22;7779;49.596;11.070;2024-02-26T12:41:34;14.60;54.40
15359;DHT22;7779;49.596;11.070;2024-02-26T12:44:01;14.60;54.60
15359;DHT22;7779;49.596;11.070;2024-02-26T12:46:27;14.60;54.70
15359;DHT22;7779;49.596;11.070;2024-02-26T12:48:55;14.60;54.20
15359;DHT22;7779;49.596;11.070;2024-02-26T12:51:23;14.60;54.20
15359;DHT22;7779;49.596;11.070;2024-02-26T12:53:50;14.60;54.10
15359;DHT22;7779;49.596;11.070;2024-02-26T12:56:18;14.60;54.00
15359;DHT22;7779;49.596;11.070;2024-02-26T12:58:44;14.60;54.00
15359;DHT22;7779;49.596;11.070;2024-02-26T13:01:15;14.60;53.80
15359;DHT22;7779;49.596;11.070;2024-02-26T13:03:43;14.50;53.40
15359;DHT22;7779;49.596;11.070;2024-02-26T13:06:09;14.50;53.70
15359;DHT22;7779;49.596;11.070;2024-02-26T13:08:36;14.50;53.30
15359;DHT22;7779;49.596;11.070;2024-02-26T13:11:02;14.50;53.30
15359;DHT22;7779;49.596;11.070;2024-02-26T13:13:28;14.50;53.30
15359;DHT22;7779;49.596;11.070;2024-02-26T13:16:09;14.50;51.60
15359;DHT22;7779;49.596;11.070;2024-02-26T13:18:39;14.50;52.30
15359;DHT22;7779;49.596;11.070;2024-02-26T13:21:12;14.60;53.50
15359;DHT22;7779;49.596;11.070;2024-02-26T13:23:40;14.60;53.40
15359;DHT22;7779;49.596;11.070;2024-02-26T13:26:08;14.60;53.60
15359;DHT22;7779;49.596;11.070;2024-02-26T13:28:37;14.70;53.70
15359;DHT22;7779;49.596;11.070;2024-02-26T13:31:03;14.80;53.50
15359;DHT22;7779;49.596;11.070;2024-02-26T13:33:33;14.80;53.20
15359;DHT22;7779;49.596;11.070;2024-02-26T13:35:59;14.80;53.10
15359;DHT22;7779;49.596;11.070;2024-02-26T13:38:27;14.90;53.00
15359;DHT22;7779;49.596;11.070;2024-02-26T13:40:56;14.90;52.70
15359;DHT22;7779;49.596;11.070;2024-02-26T13:43:21;14.90;52.70
15359;DHT22;7779;49.596;11.070;2024-02-26T13:45:47;14.90;52.30
15359;DHT22;7779;49.596;11.070;2024-02-26T13:48:14;15.00;52.60
15359;DHT22;7779;49.596;11.070;2024-02-26T13:50:40;15.00;52.50
15359;DHT22;7779;49.596;11.070;2024-02-26T13:53:11;15.10;52.80
15359;DHT22;7779;49.596;11.070;2024-02-26T13:55:38;15.20;51.50
15359;DHT22;7779;49.596;11.070;2024-02-26T13:58:05;15.20;53.00
15359;DHT22;7779;49.596;11.070;2024-02-26T14:00:32;15.20;51.80
15359;DHT22;7779;49.596;11.070;2024-02-26T14:02:59;15.20;51.80
15359;DHT22;7779;49.596;11.070;2024-02-26T14:05:26;15.20;51.70
15359;DHT22;7779;49.596;11.070;2024-02-26T14:07:52;15.20;51.60
15359;DHT22;7779;49.596;11.070;2024-02-26T14:10:19;15.20;51.50
15359;DHT22;7779;49.596;11.070;2024-02-26T14:12:45;15.20;51.30
15359;DHT22;7779;49.596;11.070;2024-02-26T14:15:11;15.20;51.30
15359;DHT22;7779;49.596;11.070;2024-02-26T14:17:37;15.20;51.20
15359;DHT22;7779;49.596;11.070;2024-02-26T14:20:03;15.10;51.20
15359;DHT22;7779;49.596;11.070;2024-02-26T14:22:29;15.10;51.30
15359;DHT22;7779;49.596;11.070;2024-02-26T14:24:58;15.00;50.80
15359;DHT22;7779;49.596;11.070;2024-02-26T14:27:24;15.00;50.90
15359;DHT22;7779;49.596;11.070;2024-02-26T14:29:51;14.90;50.90
15359;DHT22;7779;49.596;11.070;2024-02-26T14:32:16;14.90;50.70
15359;DHT22;7779;49.596;11.070;2024-02-26T14:34:43;14.80;50.60
15359;DHT22;7779;49.596;11.070;2024-02-26T14:37:08;14.80;50.60
15359;DHT22;7779;49.596;11.070;2024-02-26T14:39:34;14.80;50.60
15359;DHT22;7779;49.596;11.070;2024-02-26T14:42:00;14.70;50.70
15359;DHT22;7779;49.596;11.070;2024-02-26T14:44:26;14.70;50.60
15359;DHT22;7779;49.596;11.070;2024-02-26T14:46:52;14.70;50.70
15359;DHT22;7779;49.596;11.070;2024-02-26T14:49:18;14.60;50.50
15359;DHT22;7779;49.596;11.070;2024-02-26T14:51:44;14.60;50.40
15359;DHT22;7779;49.596;11.070;2024-02-26T14:54:12;14.50;50.20
15359;DHT22;7779;49.596;11.070;2024-02-26T14:56:38;14.50;50.40
15359;DHT22;7779;49.596;11.070;2024-02-26T14:59:04;14.40;50.20
15359;DHT22;7779;49.596;11.070;2024-02-26T15:01:30;14.40;50.30
15359;DHT22;7779;49.596;11.070;2024-02-26T15:03:56;14.30;50.30
15359;DHT22;7779;49.596;11.070;2024-02-26T15:06:23;14.30;50.30
15359;DHT22;7779;49.596;11.070;2024-02-26T15:08:49;14.30;50.30
15359;DHT22;7779;49.596;11.070;2024-02-26T15:11:14;14.30;50.40
15359;DHT22;7779;49.596;11.070;2024-02-26T15:13:40;14.20;50.20
15359;DHT22;7779;49.596;11.070;2024-02-26T15:16:06;14.20;50.30
15359;DHT22;7779;49.596;11.070;2024-02-26T15:18:32;14.20;50.40
15359;DHT22;7779;49.596;11.070;2024-02-26T15:20:58;14.10;50.40
15359;DHT22;7779;49.596;11.070;2024-02-26T15:23:24;14.10;50.50
15359;DHT22;7779;49.596;11.070;2024-02-26T15:25:50;14.10;50.70
15359;DHT22;7779;49.596;11.070;2024-02-26T15:28:15;14.00;50.90
15359;DHT22;7779;49.596;11.070;2024-02-26T15:30:41;14.00;50.90
15359;DHT22;7779;49.596;11.070;2024-02-26T15:33:08;13.90;51.00
15359;DHT22;7779;49.596;11.070;2024-02-26T15:35:34;13.90;51.10
15359;DHT22;7779;49.596;11.070;2024-02-26T15:38:00;13.80;51.20
15359;DHT22;7779;49.596;11.070;2024-02-26T15:40:26;13.80;51.30
15359;DHT22;7779;49.596;11.070;2024-02-26T15:42:52;13.70;51.30
15359;DHT22;7779;49.596;11.070;2024-02-26T15:45:19;13.70;51.40